This is the latest recevied weather packets stored in our database for station/object NO4D. If no packets are shown the sender has not sent any weather packets the latest 1 day(s).
| Time | Temp. | Humidity | Pressure | Rain* | Wind** | Luminosity | Snow |
|---|---|---|---|---|---|---|---|
| 1778081218 | 21.67° C | 73% | 1015 hPa | 0 mm | - | 137 W/m² | - |
| 1778080007 | 22.22° C | 73% | 1015 hPa | 0 mm | - | 324 W/m² | - |
| 1778079401 | 21.67° C | 75% | 1015.1 hPa | 0 mm | - | 262 W/m² | - |
| 1778076981 | 20.56° C | 77% | 1014.3 hPa | 0 mm | - | 224 W/m² | - |
| 1778076679 | 20.56° C | 78% | 1014.5 hPa | 0 mm | - | 222 W/m² | - |
| 1778076376 | 20° C | 77% | 1014.5 hPa | 0 mm | - | 219 W/m² | - |
| 1778075770 | 20° C | 77% | 1014.5 hPa | 0 mm | - | 207 W/m² | - |
| 1778075466 | 20° C | 78% | 1014.5 hPa | 0 mm | - | 183 W/m² | - |
| 1778074556 | 19.44° C | 79% | 1014.5 hPa | 0 mm | - | 154 W/m² | - |
| 1778074253 | 20° C | 78% | 1014.7 hPa | 0 mm | - | 136 W/m² | - |
| 1778071831 | 19.44° C | 79% | 1014.5 hPa | 0 mm | - | 108 W/m² | - |
| 1778071226 | 19.44° C | 79% | 1014.3 hPa | 0 mm | - | 118 W/m² | - |
| 1778070924 | 19.44° C | 79% | 1014.3 hPa | 0 mm | - | 120 W/m² | - |
| 1778070318 | 18.89° C | 80% | 1014.2 hPa | 0 mm | - | 141 W/m² | - |
| 1778069714 | 18.89° C | 81% | 1014.1 hPa | 0 mm | - | 111 W/m² | - |
| 1778069108 | 18.33° C | 80% | 1014.4 hPa | 0 mm | - | 63 W/m² | - |
| 1778068201 | 18.33° C | 81% | 1014.8 hPa | 0 mm | - | 63 W/m² | - |
| 1778067596 | 17.78° C | 82% | 1014.8 hPa | 0 mm | - | 18 W/m² | - |
| 1778066990 | 17.78° C | 82% | 1014.7 hPa | 0 mm | - | 24 W/m² | - |
| 1778066083 | 17.78° C | 82% | 1014.1 hPa | 0 mm | - | 29 W/m² | - |
| 1778064870 | 17.78° C | 82% | 1013.7 hPa | 0 mm | - | 5 W/m² | - |
| 1778062146 | 17.22° C | 84% | 1013.1 hPa | 0 mm | - | 0 W/m² | - |
| 1778060936 | 17.22° C | 84% | 1013.4 hPa | 0 mm | - | 0 W/m² | - |
| 1778060635 | 17.22° C | 84% | 1013.5 hPa | 0 mm | - | 0 W/m² | - |
| 1778060332 | 17.22° C | 84% | 1013.5 hPa | 0 mm | - | 0 W/m² | - |
* Rain latest hour (hover to see other rain measurements)
** Current wind speed in m/s (hover to see current wind gust speed)